createdAt,value
2017-07-23T00:00:08.475Z,0
2017-07-23T00:01:08.505Z,0
2017-07-23T00:02:08.511Z,0
2017-07-23T00:03:08.537Z,0
2017-07-23T00:04:08.841Z,0
2017-07-23T00:05:09.154Z,0
2017-07-23T00:06:09.078Z,0
2017-07-23T00:07:08.550Z,0
2017-07-23T00:08:08.583Z,0
2017-07-23T00:09:08.856Z,0
2017-07-23T00:10:09.191Z,0
2017-07-23T00:11:08.854Z,0
2017-07-23T00:12:08.557Z,0
2017-07-23T00:13:08.861Z,0
2017-07-23T00:14:08.920Z,0
2017-07-23T00:15:08.878Z,0
2017-07-23T00:16:08.572Z,0
2017-07-23T00:17:08.889Z,0
2017-07-23T00:18:08.583Z,0
2017-07-23T00:19:08.884Z,0
2017-07-23T00:20:09.203Z,0
2017-07-23T00:21:08.892Z,0
2017-07-23T00:22:08.908Z,0
2017-07-23T00:23:08.911Z,0
2017-07-23T00:24:08.909Z,0
2017-07-23T00:25:09.242Z,0
2017-07-23T00:26:08.619Z,0
2017-07-23T00:27:08.606Z,0
2017-07-23T00:28:08.325Z,0
2017-07-23T00:29:10.819Z,0
2017-07-23T00:30:09.180Z,0
2017-07-23T00:31:08.933Z,0
2017-07-23T00:32:08.936Z,0
2017-07-23T00:33:08.947Z,0
2017-07-23T00:34:08.942Z,0
2017-07-23T00:35:08.952Z,0
2017-07-23T00:36:08.959Z,0
2017-07-23T00:37:08.956Z,0
2017-07-23T00:38:08.968Z,0
2017-07-23T00:39:08.961Z,0
2017-07-23T00:40:09.338Z,0
2017-07-23T00:41:08.972Z,0
2017-07-23T00:42:08.666Z,0
2017-07-23T00:43:08.976Z,0
2017-07-23T00:44:11.733Z,0
2017-07-23T00:45:09.388Z,0
2017-07-23T00:46:08.983Z,0
2017-07-23T00:47:08.687Z,0
2017-07-23T00:48:08.996Z,0
2017-07-23T00:49:09.007Z,0
2017-07-23T00:50:09.451Z,0
2017-07-23T00:51:08.701Z,0
2017-07-23T00:52:09.017Z,0
2017-07-23T00:53:08.715Z,0
2017-07-23T00:54:09.026Z,0
2017-07-23T00:55:09.386Z,0
2017-07-23T00:56:09.032Z,0
2017-07-23T00:57:09.033Z,0
2017-07-23T00:58:08.732Z,0
2017-07-23T00:59:09.034Z,0
2017-07-23T01:00:11.504Z,0
2017-07-23T01:01:09.056Z,0
2017-07-23T01:02:09.071Z,0
2017-07-23T01:03:09.051Z,0
2017-07-23T01:04:08.771Z,0
2017-07-23T01:05:09.468Z,0
2017-07-23T01:06:08.775Z,0
2017-07-23T01:07:09.093Z,0
2017-07-23T01:08:09.075Z,0
2017-07-23T01:09:08.774Z,0
2017-07-23T01:10:09.114Z,0
2017-07-23T01:11:09.073Z,0
2017-07-23T01:12:09.083Z,0
2017-07-23T01:13:09.082Z,0
2017-07-23T01:14:09.109Z,0
2017-07-23T01:15:11.244Z,0
2017-07-23T01:16:08.848Z,0
2017-07-23T01:17:09.104Z,0
2017-07-23T01:18:09.106Z,0
2017-07-23T01:19:08.504Z,0
2017-07-23T01:20:09.157Z,0
2017-07-23T01:21:09.110Z,0
2017-07-23T01:22:08.831Z,0
2017-07-23T01:23:09.123Z,0
2017-07-23T01:24:09.126Z,0
2017-07-23T01:25:09.552Z,0
2017-07-23T01:26:08.837Z,0
2017-07-23T01:27:09.169Z,0
2017-07-23T01:28:09.157Z,0
2017-07-23T01:29:09.149Z,0
2017-07-23T01:30:10.083Z,0
2017-07-23T01:31:09.149Z,0
2017-07-23T01:32:08.858Z,0
2017-07-23T01:33:09.160Z,0
2017-07-23T01:34:08.859Z,0
2017-07-23T01:35:09.210Z,0
2017-07-23T01:36:08.877Z,0
2017-07-23T01:37:09.180Z,0
2017-07-23T01:38:09.173Z,0
2017-07-23T01:39:09.181Z,0
2017-07-23T01:40:09.586Z,0
2017-07-23T01:41:08.895Z,0
2017-07-23T01:42:08.895Z,0
2017-07-23T01:43:09.190Z,0
2017-07-23T01:44:09.198Z,0
2017-07-23T01:45:14.039Z,0
2017-07-23T01:46:08.899Z,0
2017-07-23T01:47:09.208Z,0
2017-07-23T01:48:09.223Z,0
2017-07-23T01:49:08.931Z,0
2017-07-23T01:50:09.608Z,0
2017-07-23T01:51:08.618Z,0
2017-07-23T01:52:09.231Z,0
2017-07-23T01:53:09.263Z,0
2017-07-23T01:54:09.244Z,0
2017-07-23T01:55:09.751Z,0
2017-07-23T01:56:08.943Z,0
2017-07-23T01:57:08.977Z,0
2017-07-23T01:58:09.238Z,0
2017-07-23T01:59:08.942Z,0
2017-07-23T02:00:09.613Z,0
2017-07-23T02:01:09.996Z,0
2017-07-23T02:02:09.257Z,0
2017-07-23T02:03:08.954Z,0
2017-07-23T02:04:09.266Z,0
2017-07-23T02:05:09.680Z,0
2017-07-23T02:06:08.975Z,0
2017-07-23T02:07:09.289Z,0
2017-07-23T02:08:08.988Z,0
2017-07-23T02:09:08.990Z,0
2017-07-23T02:10:09.329Z,0
2017-07-23T02:11:09.287Z,0
2017-07-23T02:12:09.013Z,0
2017-07-23T02:13:09.287Z,0
2017-07-23T02:14:09.301Z,0
2017-07-23T02:15:09.720Z,0
2017-07-23T02:16:09.359Z,0
2017-07-23T02:17:09.308Z,0
2017-07-23T02:18:09.306Z,0
2017-07-23T02:19:09.013Z,0
2017-07-23T02:20:09.779Z,0
2017-07-23T02:21:09.342Z,0
2017-07-23T02:22:09.040Z,0
2017-07-23T02:23:09.038Z,0
2017-07-23T02:24:09.047Z,0
2017-07-23T02:25:09.443Z,0
2017-07-23T02:26:09.040Z,0
2017-07-23T02:27:09.365Z,0
2017-07-23T02:28:09.047Z,0
2017-07-23T02:29:09.345Z,0
2017-07-23T02:30:09.740Z,0
2017-07-23T02:31:11.978Z,0
2017-07-23T02:32:09.373Z,0
2017-07-23T02:33:09.406Z,0
2017-07-23T02:34:09.368Z,0
2017-07-23T02:35:09.850Z,0
2017-07-23T02:36:09.467Z,0
2017-07-23T02:37:09.389Z,0
2017-07-23T02:38:09.384Z,0
2017-07-23T02:39:09.086Z,0
2017-07-23T02:40:09.466Z,0
2017-07-23T02:41:09.413Z,0
2017-07-23T02:42:09.390Z,0
2017-07-23T02:43:09.410Z,0
2017-07-23T02:44:09.094Z,0
2017-07-23T02:45:09.828Z,0
2017-07-23T02:46:09.106Z,0
2017-07-23T02:47:09.417Z,0
2017-07-23T02:48:09.417Z,0
2017-07-23T02:49:09.438Z,0
2017-07-23T02:50:09.539Z,0
2017-07-23T02:51:09.437Z,0
2017-07-23T02:52:09.116Z,0
2017-07-23T02:53:09.432Z,0
2017-07-23T02:54:09.148Z,0
2017-07-23T02:55:09.862Z,0
2017-07-23T02:56:09.427Z,0
2017-07-23T02:57:09.435Z,0
2017-07-23T02:58:09.141Z,0
2017-07-23T02:59:09.441Z,0
2017-07-23T03:00:09.873Z,0
2017-07-23T03:01:09.449Z,0
2017-07-23T03:02:09.159Z,0
2017-07-23T03:03:09.463Z,0
2017-07-23T03:04:09.454Z,0
2017-07-23T03:05:09.550Z,0
2017-07-23T03:06:09.482Z,0
2017-07-23T03:07:09.470Z,0
2017-07-23T03:08:09.497Z,0
2017-07-23T03:09:09.481Z,0
2017-07-23T03:10:09.600Z,0
2017-07-23T03:11:09.482Z,0
2017-07-23T03:12:09.185Z,0
2017-07-23T03:13:09.498Z,0
2017-07-23T03:14:08.890Z,0
2017-07-23T03:15:09.993Z,0
2017-07-23T03:16:09.578Z,0
2017-07-23T03:17:08.943Z,0
2017-07-23T03:18:09.509Z,0
2017-07-23T03:19:09.202Z,0
2017-07-23T03:20:09.938Z,0
2017-07-23T03:21:09.508Z,0
2017-07-23T03:22:09.211Z,0
2017-07-23T03:23:09.213Z,0
2017-07-23T03:24:08.921Z,0
2017-07-23T03:25:09.971Z,0
2017-07-23T03:26:09.534Z,0
2017-07-23T03:27:09.224Z,0
2017-07-23T03:28:09.541Z,0
2017-07-23T03:29:09.535Z,0
2017-07-23T03:30:09.960Z,4
2017-07-23T03:31:09.256Z,4
2017-07-23T03:32:11.564Z,4
2017-07-23T03:33:09.543Z,4
2017-07-23T03:34:09.263Z,4
2017-07-23T03:35:09.659Z,4
2017-07-23T03:36:09.569Z,4
2017-07-23T03:37:09.559Z,8
2017-07-23T03:38:09.254Z,8
2017-07-23T03:39:09.564Z,12
2017-07-23T03:40:09.966Z,12
2017-07-23T03:41:09.276Z,16
2017-07-23T03:42:09.263Z,16
2017-07-23T03:43:09.264Z,12
2017-07-23T03:44:09.602Z,12
2017-07-23T03:45:10.096Z,12
2017-07-23T03:46:09.581Z,16
2017-07-23T03:47:09.578Z,20
2017-07-23T03:48:09.581Z,16
2017-07-23T03:49:09.286Z,20
2017-07-23T03:50:09.727Z,28
2017-07-23T03:51:09.591Z,32
2017-07-23T03:52:09.610Z,28
2017-07-23T03:53:09.595Z,36
2017-07-23T03:54:09.304Z,40
2017-07-23T03:55:09.707Z,48
2017-07-23T03:56:09.302Z,52
2017-07-23T03:57:09.626Z,52
2017-07-23T03:58:09.311Z,52
2017-07-23T03:59:09.627Z,52
2017-07-23T04:00:10.061Z,52
2017-07-23T04:01:09.336Z,52
2017-07-23T04:02:13.742Z,48
2017-07-23T04:03:09.645Z,48
2017-07-23T04:04:09.334Z,56
2017-07-23T04:05:10.059Z,56
2017-07-23T04:06:09.643Z,56
2017-07-23T04:07:09.674Z,56
2017-07-23T04:08:09.654Z,60
2017-07-23T04:09:09.644Z,68
2017-07-23T04:10:09.746Z,80
2017-07-23T04:11:09.648Z,88
2017-07-23T04:12:09.061Z,96
2017-07-23T04:13:09.656Z,100
2017-07-23T04:14:09.357Z,104
2017-07-23T04:15:09.786Z,108
2017-07-23T04:16:09.363Z,108
2017-07-23T04:17:09.659Z,100
2017-07-23T04:18:10.617Z,92
2017-07-23T04:19:09.385Z,80
2017-07-23T04:20:09.774Z,80
2017-07-23T04:21:09.390Z,80
2017-07-23T04:22:09.385Z,80
2017-07-23T04:23:09.692Z,72
2017-07-23T04:24:09.682Z,68
2017-07-23T04:25:10.095Z,64
2017-07-23T04:26:09.688Z,60
2017-07-23T04:27:09.698Z,60
2017-07-23T04:28:09.717Z,56
2017-07-23T04:29:09.706Z,56
2017-07-23T04:30:09.789Z,56
2017-07-23T04:31:09.728Z,56
2017-07-23T04:32:09.403Z,48
2017-07-23T04:33:10.118Z,40
2017-07-23T04:34:09.131Z,36
2017-07-23T04:35:10.311Z,36
2017-07-23T04:36:09.727Z,44
2017-07-23T04:37:09.729Z,56
2017-07-23T04:38:09.732Z,60
2017-07-23T04:39:09.431Z,68
2017-07-23T04:40:10.221Z,72
2017-07-23T04:41:09.731Z,68
2017-07-23T04:42:08.834Z,64
2017-07-23T04:43:09.435Z,72
2017-07-23T04:44:09.743Z,84
2017-07-23T04:45:09.881Z,92
2017-07-23T04:46:09.767Z,100
2017-07-23T04:47:09.451Z,108
2017-07-23T04:48:09.823Z,100
2017-07-23T04:49:09.763Z,96
2017-07-23T04:50:09.904Z,104
2017-07-23T04:51:09.472Z,132
2017-07-23T04:52:09.764Z,140
2017-07-23T04:53:09.472Z,152
2017-07-23T04:54:09.782Z,180
2017-07-23T04:55:10.281Z,204
2017-07-23T04:56:09.479Z,224
2017-07-23T04:57:09.791Z,276
2017-07-23T04:58:09.486Z,332
2017-07-23T04:59:09.805Z,396
2017-07-23T05:00:10.313Z,488
2017-07-23T05:01:09.805Z,584
2017-07-23T05:02:09.806Z,668
2017-07-23T05:03:13.044Z,680
2017-07-23T05:04:09.805Z,640
2017-07-23T05:05:10.312Z,616
2017-07-23T05:06:09.816Z,564
2017-07-23T05:07:09.810Z,504
2017-07-23T05:08:09.505Z,460
2017-07-23T05:09:09.815Z,452
2017-07-23T05:10:10.351Z,452
2017-07-23T05:11:09.828Z,476
2017-07-23T05:12:09.846Z,516
2017-07-23T05:13:09.819Z,588
2017-07-23T05:14:09.850Z,704
2017-07-23T05:15:09.930Z,772
2017-07-23T05:16:09.550Z,828
2017-07-23T05:17:09.860Z,928
2017-07-23T05:18:10.844Z,1116
2017-07-23T05:19:09.860Z,1460
2017-07-23T05:20:10.341Z,1776
2017-07-23T05:21:09.866Z,1992
2017-07-23T05:22:09.553Z,2240
2017-07-23T05:23:09.870Z,2564
2017-07-23T05:24:09.270Z,2756
2017-07-23T05:25:10.341Z,2436
2017-07-23T05:26:09.884Z,2072
2017-07-23T05:27:09.881Z,1976
2017-07-23T05:28:09.876Z,2040
2017-07-23T05:29:09.579Z,2004
2017-07-23T05:30:10.446Z,1908
2017-07-23T05:31:09.585Z,2112
2017-07-23T05:32:09.890Z,2308
2017-07-23T05:33:09.901Z,2128
2017-07-23T05:34:11.092Z,1852
2017-07-23T05:35:10.410Z,1720
2017-07-23T05:36:09.917Z,1712
2017-07-23T05:37:09.920Z,1772
2017-07-23T05:38:09.919Z,2040
2017-07-23T05:39:09.909Z,2196
2017-07-23T05:40:10.471Z,2372
2017-07-23T05:41:09.933Z,2432
2017-07-23T05:42:09.626Z,2452
2017-07-23T05:43:09.939Z,2804
2017-07-23T05:44:09.945Z,3276
2017-07-23T05:45:10.468Z,3632
2017-07-23T05:46:09.955Z,3848
2017-07-23T05:47:09.943Z,3880
2017-07-23T05:48:09.368Z,3796
2017-07-23T05:49:10.009Z,3652
2017-07-23T05:50:10.136Z,3496
2017-07-23T05:51:09.957Z,3524
2017-07-23T05:52:09.980Z,3688
2017-07-23T05:53:09.963Z,3872
2017-07-23T05:54:09.964Z,4016
2017-07-23T05:55:10.568Z,4196
2017-07-23T05:56:09.976Z,4324
2017-07-23T05:57:09.989Z,4184
2017-07-23T05:58:10.005Z,4036
2017-07-23T05:59:09.998Z,3972
2017-07-23T06:00:10.480Z,3920
2017-07-23T06:01:10.001Z,4012
2017-07-23T06:02:09.994Z,4032
2017-07-23T06:03:09.997Z,3980
2017-07-23T06:04:11.560Z,4032
2017-07-23T06:05:10.574Z,4008
2017-07-23T06:06:09.423Z,3812
2017-07-23T06:07:10.035Z,3716
2017-07-23T06:08:10.024Z,3472
2017-07-23T06:09:10.026Z,3568
2017-07-23T06:10:10.291Z,3460
2017-07-23T06:11:10.040Z,3488
2017-07-23T06:12:10.036Z,3836
2017-07-23T06:13:10.056Z,3892
2017-07-23T06:14:09.445Z,4052
2017-07-23T06:15:10.616Z,4616
2017-07-23T06:16:10.061Z,4600
2017-07-23T06:17:10.064Z,4432
2017-07-23T06:18:10.053Z,4480
2017-07-23T06:19:10.130Z,4600
2017-07-23T06:20:10.196Z,5060
2017-07-23T06:21:10.069Z,5316
2017-07-23T06:22:09.766Z,4840
2017-07-23T06:23:10.065Z,4332
2017-07-23T06:24:10.074Z,3960
2017-07-23T06:25:10.379Z,4132
2017-07-23T06:26:09.805Z,4704
2017-07-23T06:27:10.092Z,5428
2017-07-23T06:28:10.084Z,6128
2017-07-23T06:29:09.810Z,6936
2017-07-23T06:30:09.968Z,6652
2017-07-23T06:31:09.813Z,6200
2017-07-23T06:32:09.813Z,7036
2017-07-23T06:33:10.118Z,7976
2017-07-23T06:34:09.522Z,8312
2017-07-23T06:35:10.654Z,7936
2017-07-23T06:36:10.124Z,13524
2017-07-23T06:37:10.137Z,6216
2017-07-23T06:38:09.859Z,10776
2017-07-23T06:39:10.142Z,11072
2017-07-23T06:40:10.379Z,14120
2017-07-23T06:41:10.146Z,10076
2017-07-23T06:42:10.166Z,5644
2017-07-23T06:43:10.169Z,5200
2017-07-23T06:44:09.871Z,5024
2017-07-23T06:45:10.351Z,5052
2017-07-23T06:46:10.204Z,4100
2017-07-23T06:47:10.187Z,3440
2017-07-23T06:48:10.202Z,3120
2017-07-23T06:49:10.190Z,2908
2017-07-23T06:50:10.394Z,3148
2017-07-23T06:51:09.917Z,3664
2017-07-23T06:52:10.203Z,4140
2017-07-23T06:53:10.196Z,4248
2017-07-23T06:54:09.916Z,4316
2017-07-23T06:55:10.760Z,4212
2017-07-23T06:56:09.622Z,3520
2017-07-23T06:57:10.239Z,3044
2017-07-23T06:58:10.233Z,2876
2017-07-23T06:59:10.243Z,2856
2017-07-23T07:00:10.747Z,2772
2017-07-23T07:01:10.249Z,2920
2017-07-23T07:02:09.948Z,3580
2017-07-23T07:03:10.264Z,4160
2017-07-23T07:04:09.974Z,4628
2017-07-23T07:05:12.355Z,5048
2017-07-23T07:06:10.269Z,5420
2017-07-23T07:07:10.272Z,6260
2017-07-23T07:08:10.270Z,7364
2017-07-23T07:09:09.685Z,8564
2017-07-23T07:10:10.186Z,8952
2017-07-23T07:11:10.285Z,8808
2017-07-23T07:12:10.002Z,8076
2017-07-23T07:13:10.302Z,7128
2017-07-23T07:14:09.690Z,6044
2017-07-23T07:15:11.024Z,4960
2017-07-23T07:16:10.299Z,4300
2017-07-23T07:17:10.305Z,3844
2017-07-23T07:18:10.309Z,3384
2017-07-23T07:19:09.712Z,3176
2017-07-23T07:20:11.446Z,3120
2017-07-23T07:21:10.468Z,3008
2017-07-23T07:22:11.025Z,2936
2017-07-23T07:23:10.331Z,3132
2017-07-23T07:24:10.096Z,3552
2017-07-23T07:25:10.227Z,3928
2017-07-23T07:26:10.052Z,4000
2017-07-23T07:27:10.355Z,3872
2017-07-23T07:28:10.067Z,3716
2017-07-23T07:29:10.365Z,3520
2017-07-23T07:30:10.664Z,3192
2017-07-23T07:31:10.366Z,2900
2017-07-23T07:32:10.363Z,2764
2017-07-23T07:33:10.372Z,2896
2017-07-23T07:34:09.780Z,2904
2017-07-23T07:35:10.558Z,2616
2017-07-23T07:36:10.081Z,2492
2017-07-23T07:37:10.383Z,2572
2017-07-23T07:38:10.399Z,2964
2017-07-23T07:39:10.397Z,3536
2017-07-23T07:40:10.634Z,3988
2017-07-23T07:41:10.402Z,4364
2017-07-23T07:42:10.411Z,4444
2017-07-23T07:43:10.436Z,4472
2017-07-23T07:44:09.843Z,4620
2017-07-23T07:45:11.172Z,4904
2017-07-23T07:46:10.425Z,5088
2017-07-23T07:47:09.828Z,5048
2017-07-23T07:48:10.129Z,5060
2017-07-23T07:49:10.136Z,5028
2017-07-23T07:50:13.449Z,5124
2017-07-23T07:51:10.452Z,5244
2017-07-23T07:52:10.451Z,5580
2017-07-23T07:53:10.455Z,6412
2017-07-23T07:54:10.452Z,7100
2017-07-23T07:55:10.676Z,7272
2017-07-23T07:56:10.460Z,7096
2017-07-23T07:57:10.468Z,7032
2017-07-23T07:58:10.172Z,7232
2017-07-23T07:59:10.481Z,7360
2017-07-23T08:00:11.406Z,7928
2017-07-23T08:01:10.488Z,8964
2017-07-23T08:02:10.204Z,9728
2017-07-23T08:03:10.197Z,10588
2017-07-23T08:04:10.492Z,10768
2017-07-23T08:05:12.521Z,10428
2017-07-23T08:06:09.911Z,9732
2017-07-23T08:07:10.217Z,9624
2017-07-23T08:08:10.521Z,10788
2017-07-23T08:09:10.543Z,9708
2017-07-23T08:10:12.185Z,9900
2017-07-23T08:11:10.530Z,12884
2017-07-23T08:12:10.238Z,10796
2017-07-23T08:13:10.540Z,12472
2017-07-23T08:14:10.551Z,12556
2017-07-23T08:15:11.453Z,10912
2017-07-23T08:16:10.565Z,10704
2017-07-23T08:17:10.260Z,11572
2017-07-23T08:18:10.557Z,10728
2017-07-23T08:19:10.263Z,10908
2017-07-23T08:20:11.647Z,11404
2017-07-23T08:21:10.571Z,11064
2017-07-23T08:22:10.581Z,10420
2017-07-23T08:23:10.586Z,10024
2017-07-23T08:24:10.600Z,10016
2017-07-23T08:25:11.123Z,10008
2017-07-23T08:26:11.118Z,11844
2017-07-23T08:27:10.309Z,10648
2017-07-23T08:28:10.628Z,12484
2017-07-23T08:29:10.627Z,12828
2017-07-23T08:30:11.139Z,12656
2017-07-23T08:31:10.339Z,13412
2017-07-23T08:32:10.337Z,13192
2017-07-23T08:33:10.341Z,12972
2017-07-23T08:34:10.648Z,13656
2017-07-23T08:35:11.330Z,13536
2017-07-23T08:36:10.210Z,13396
2017-07-23T08:37:10.665Z,13720
2017-07-23T08:38:10.368Z,13560
2017-07-23T08:39:10.680Z,13296
2017-07-23T08:40:11.415Z,12964
2017-07-23T08:41:10.405Z,12956
2017-07-23T08:42:10.405Z,13060
2017-07-23T08:43:10.406Z,13800
2017-07-23T08:44:10.719Z,14332
2017-07-23T08:45:11.125Z,13740
2017-07-23T08:46:10.127Z,14228
2017-07-23T08:47:10.433Z,13928
2017-07-23T08:48:10.444Z,13112
2017-07-23T08:49:10.142Z,13268
2017-07-23T08:50:11.484Z,13080
2017-07-23T08:51:11.617Z,13612
2017-07-23T08:52:10.786Z,13456
2017-07-23T08:53:10.181Z,13724
2017-07-23T08:54:10.791Z,14224
2017-07-23T08:55:11.833Z,14820
2017-07-23T08:56:10.806Z,14912
2017-07-23T08:57:10.505Z,15380
2017-07-23T08:58:10.514Z,14680
2017-07-23T08:59:10.825Z,15744
2017-07-23T09:00:11.401Z,15016
2017-07-23T09:01:10.850Z,13928
2017-07-23T09:02:10.545Z,13432
2017-07-23T09:03:10.553Z,12484
2017-07-23T09:04:10.869Z,12448
2017-07-23T09:05:11.257Z,12448
2017-07-23T09:06:12.924Z,11900
2017-07-23T09:07:10.888Z,11496
2017-07-23T09:08:10.587Z,11536
2017-07-23T09:09:10.606Z,11180
2017-07-23T09:10:11.064Z,10708
2017-07-23T09:11:10.302Z,10224
2017-07-23T09:12:10.619Z,10028
2017-07-23T09:13:10.922Z,10068
2017-07-23T09:14:10.924Z,9700
2017-07-23T09:15:11.687Z,9252
2017-07-23T09:16:10.637Z,9112
2017-07-23T09:17:10.649Z,9376
2017-07-23T09:18:10.953Z,9600
2017-07-23T09:19:10.647Z,9420
2017-07-23T09:20:11.116Z,9480
2017-07-23T09:21:10.356Z,9672
2017-07-23T09:22:12.276Z,9932
2017-07-23T09:23:10.974Z,9640
2017-07-23T09:24:10.980Z,9560
2017-07-23T09:25:11.911Z,9880
2017-07-23T09:26:10.988Z,9972
2017-07-23T09:27:10.405Z,9944
2017-07-23T09:28:10.713Z,10404
2017-07-23T09:29:11.011Z,10952
2017-07-23T09:30:11.227Z,11124
2017-07-23T09:31:11.015Z,10900
2017-07-23T09:32:10.724Z,10916
2017-07-23T09:33:11.036Z,10996
2017-07-23T09:34:11.026Z,10528
2017-07-23T09:35:11.582Z,10852
2017-07-23T09:36:11.044Z,12032
2017-07-23T09:37:15.254Z,11180
2017-07-23T09:38:10.753Z,10960
2017-07-23T09:39:10.752Z,10864
2017-07-23T09:40:11.926Z,10732
2017-07-23T09:41:11.066Z,10524
2017-07-23T09:42:10.769Z,10408
2017-07-23T09:43:11.078Z,10168
2017-07-23T09:44:10.780Z,10492
2017-07-23T09:45:11.244Z,12452
2017-07-23T09:46:10.795Z,13900
2017-07-23T09:47:10.793Z,13932
2017-07-23T09:48:10.807Z,12784
2017-07-23T09:49:11.110Z,13028
2017-07-23T09:50:12.109Z,13508
2017-07-23T09:51:10.812Z,13828
2017-07-23T09:52:12.016Z,12720
2017-07-23T09:53:11.125Z,12688
2017-07-23T09:54:10.834Z,12776
2017-07-23T09:55:11.997Z,12624
2017-07-23T09:56:10.844Z,10996
2017-07-23T09:57:10.555Z,10308
2017-07-23T09:58:11.165Z,10420
2017-07-23T09:59:10.561Z,10260
2017-07-23T10:00:12.130Z,10360
2017-07-23T10:01:10.900Z,11268
2017-07-23T10:02:10.888Z,10684
2017-07-23T10:03:11.200Z,10984
2017-07-23T10:04:10.889Z,10700
2017-07-23T10:05:12.042Z,11092
2017-07-23T10:06:11.202Z,9644
2017-07-23T10:07:10.915Z,8984
2017-07-23T10:08:11.206Z,9244
2017-07-23T10:09:10.641Z,9868
2017-07-23T10:10:12.040Z,9896
2017-07-23T10:11:10.945Z,9072
2017-07-23T10:12:10.630Z,9144
2017-07-23T10:13:11.267Z,9868
2017-07-23T10:14:11.253Z,10196
2017-07-23T10:15:11.848Z,9944
2017-07-23T10:16:11.257Z,10452
2017-07-23T10:17:10.965Z,11092
2017-07-23T10:18:11.267Z,11500
2017-07-23T10:19:10.984Z,12112
2017-07-23T10:20:12.159Z,11060
2017-07-23T10:21:10.981Z,10468
2017-07-23T10:22:10.987Z,10896
2017-07-23T10:23:12.107Z,11912
2017-07-23T10:24:10.992Z,11736
2017-07-23T10:25:11.668Z,11844
2017-07-23T10:26:11.019Z,11208
2017-07-23T10:27:11.374Z,12456
2017-07-23T10:28:11.053Z,13252
2017-07-23T10:29:10.773Z,13080
2017-07-23T10:30:12.269Z,13244
2017-07-23T10:31:11.036Z,11240
2017-07-23T10:32:11.366Z,12304
2017-07-23T10:33:11.359Z,10760
2017-07-23T10:34:11.075Z,10616
2017-07-23T10:35:11.919Z,12536
2017-07-23T10:36:11.399Z,12856
2017-07-23T10:37:11.071Z,12716
2017-07-23T10:38:11.235Z,12956
2017-07-23T10:39:11.381Z,12268
2017-07-23T10:40:12.549Z,11256
2017-07-23T10:41:11.391Z,10224
2017-07-23T10:42:11.150Z,9792
2017-07-23T10:43:11.128Z,9636
2017-07-23T10:44:11.125Z,10644
2017-07-23T10:45:12.323Z,11728
2017-07-23T10:46:11.420Z,11040
2017-07-23T10:47:10.830Z,10020
2017-07-23T10:48:11.427Z,9584
2017-07-23T10:49:11.140Z,9716
2017-07-23T10:50:12.638Z,11268
2017-07-23T10:51:11.444Z,11960
2017-07-23T10:52:11.451Z,11672
2017-07-23T10:53:14.604Z,10544
2017-07-23T10:54:11.463Z,8952
2017-07-23T10:55:11.461Z,7828
2017-07-23T10:56:11.476Z,8152
2017-07-23T10:57:11.475Z,9472
2017-07-23T10:58:11.190Z,9396
2017-07-23T10:59:11.194Z,9180
2017-07-23T11:00:12.758Z,8656
2017-07-23T11:01:11.208Z,8272
2017-07-23T11:02:11.221Z,8384
2017-07-23T11:03:11.512Z,8608
2017-07-23T11:04:11.211Z,8556
2017-07-23T11:05:12.907Z,8052
2017-07-23T11:06:11.531Z,7408
2017-07-23T11:07:11.542Z,7620
2017-07-23T11:08:14.038Z,8228
2017-07-23T11:09:11.562Z,8672
2017-07-23T11:10:12.599Z,8856
2017-07-23T11:11:11.265Z,8608
2017-07-23T11:12:11.261Z,8816
2017-07-23T11:13:11.576Z,9180
2017-07-23T11:14:11.573Z,9392
2017-07-23T11:15:12.953Z,9736
2017-07-23T11:16:11.591Z,10624
2017-07-23T11:17:11.288Z,10908
2017-07-23T11:18:10.989Z,10904
2017-07-23T11:19:11.296Z,10216
2017-07-23T11:20:12.296Z,10516
2017-07-23T11:21:11.009Z,12004
2017-07-23T11:22:11.629Z,12712
2017-07-23T11:23:11.329Z,11896
2017-07-23T11:24:11.669Z,10628
2017-07-23T11:25:12.756Z,9544
2017-07-23T11:26:11.658Z,9984
2017-07-23T11:27:11.649Z,11032
2017-07-23T11:28:11.640Z,10808
2017-07-23T11:29:11.363Z,12292
2017-07-23T11:30:12.327Z,11588
2017-07-23T11:31:11.351Z,11672
2017-07-23T11:32:11.660Z,12564
2017-07-23T11:33:11.365Z,12344
2017-07-23T11:34:11.674Z,11916
2017-07-23T11:35:12.705Z,11804
2017-07-23T11:36:11.388Z,10728
2017-07-23T11:37:11.691Z,11016
2017-07-23T11:38:11.691Z,11096
2017-07-23T11:39:12.499Z,11376
2017-07-23T11:40:11.833Z,12332
2017-07-23T11:41:11.709Z,12592
2017-07-23T11:42:11.408Z,13868
2017-07-23T11:43:11.712Z,12164
2017-07-23T11:44:11.721Z,10740
2017-07-23T11:45:12.261Z,9748
2017-07-23T11:46:11.742Z,9632
2017-07-23T11:47:11.437Z,10072
2017-07-23T11:48:11.441Z,10336
2017-07-23T11:49:11.751Z,10592
2017-07-23T11:50:12.518Z,11116
2017-07-23T11:51:11.758Z,11492
2017-07-23T11:52:11.775Z,11908
2017-07-23T11:53:11.771Z,11616
2017-07-23T11:54:12.324Z,10704
2017-07-23T11:55:12.440Z,10200
2017-07-23T11:56:11.480Z,9392
2017-07-23T11:57:11.796Z,8888
2017-07-23T11:58:11.487Z,9248
2017-07-23T11:59:11.497Z,9732
2017-07-23T12:00:12.990Z,9456
2017-07-23T12:01:11.818Z,9628
2017-07-23T12:02:11.521Z,10700
2017-07-23T12:03:11.831Z,12180
2017-07-23T12:04:11.533Z,13448
2017-07-23T12:05:12.388Z,12212
2017-07-23T12:06:11.534Z,12692
2017-07-23T12:07:11.573Z,11620
2017-07-23T12:08:11.855Z,12828
2017-07-23T12:09:11.983Z,10572
2017-07-23T12:10:12.545Z,10272
2017-07-23T12:11:11.887Z,9812
2017-07-23T12:12:11.902Z,10384
2017-07-23T12:13:11.583Z,9804
2017-07-23T12:14:11.578Z,10312
2017-07-23T12:15:12.801Z,11232
2017-07-23T12:16:11.597Z,11204
2017-07-23T12:17:11.906Z,11680
2017-07-23T12:18:11.602Z,11476
2017-07-23T12:19:11.314Z,12928
2017-07-23T12:20:12.124Z,11816
2017-07-23T12:21:11.309Z,11796
2017-07-23T12:22:11.915Z,10556
2017-07-23T12:23:11.676Z,11656
2017-07-23T12:24:11.400Z,10676
2017-07-23T12:25:12.706Z,10720
2017-07-23T12:26:11.946Z,11460
2017-07-23T12:27:11.653Z,11732
2017-07-23T12:28:11.353Z,10884
2017-07-23T12:29:11.659Z,10176
2017-07-23T12:30:12.779Z,9164
2017-07-23T12:31:11.380Z,9408
2017-07-23T12:32:11.390Z,9976
2017-07-23T12:33:11.683Z,10332
2017-07-23T12:34:11.994Z,11288
2017-07-23T12:35:12.918Z,11200
2017-07-23T12:36:12.006Z,10768
2017-07-23T12:37:11.705Z,10592
2017-07-23T12:38:12.002Z,10060
2017-07-23T12:39:12.260Z,11064
2017-07-23T12:40:13.173Z,11544
2017-07-23T12:41:12.022Z,11176
2017-07-23T12:42:11.429Z,10260
2017-07-23T12:43:12.031Z,9456
2017-07-23T12:44:11.735Z,9068
2017-07-23T12:45:13.278Z,8888
2017-07-23T12:46:12.054Z,9152
2017-07-23T12:47:11.779Z,10456
2017-07-23T12:48:12.056Z,12420
2017-07-23T12:49:12.080Z,12664
2017-07-23T12:50:13.295Z,12512
2017-07-23T12:51:12.076Z,11792
2017-07-23T12:52:11.484Z,11964
2017-07-23T12:53:11.482Z,12752
2017-07-23T12:54:12.162Z,12112
2017-07-23T12:55:12.693Z,13244
2017-07-23T12:56:11.810Z,13240
2017-07-23T12:57:12.124Z,13640
2017-07-23T12:58:12.129Z,12164
2017-07-23T12:59:12.168Z,10860
2017-07-23T13:00:13.275Z,10576
2017-07-23T13:01:11.833Z,10488
2017-07-23T13:02:11.538Z,10660
2017-07-23T13:03:11.847Z,10784
2017-07-23T13:04:11.863Z,11212
2017-07-23T13:05:13.289Z,11156
2017-07-23T13:06:11.869Z,10712
2017-07-23T13:07:11.873Z,10392
2017-07-23T13:08:12.180Z,10720
2017-07-23T13:09:12.180Z,11420
2017-07-23T13:10:12.569Z,11504
2017-07-23T13:11:11.602Z,11108
2017-07-23T13:12:12.219Z,11056
2017-07-23T13:13:11.908Z,10352
2017-07-23T13:14:12.211Z,9928
2017-07-23T13:15:13.368Z,9556
2017-07-23T13:16:12.248Z,9564
2017-07-23T13:17:11.925Z,9232
2017-07-23T13:18:11.936Z,8876
2017-07-23T13:19:12.248Z,9588
2017-07-23T13:20:13.005Z,8512
2017-07-23T13:21:11.963Z,8884
2017-07-23T13:22:11.962Z,8036
2017-07-23T13:23:11.406Z,7984
2017-07-23T13:24:12.276Z,7048
2017-07-23T13:25:13.556Z,7008
2017-07-23T13:26:12.281Z,8628
2017-07-23T13:27:11.732Z,9584
2017-07-23T13:28:12.297Z,9812
2017-07-23T13:29:12.303Z,10044
2017-07-23T13:30:13.447Z,9520
2017-07-23T13:31:12.318Z,8960
2017-07-23T13:32:12.335Z,8956
2017-07-23T13:33:12.033Z,8716
2017-07-23T13:34:12.334Z,8312
2017-07-23T13:35:13.559Z,8768
2017-07-23T13:36:12.032Z,9896
2017-07-23T13:37:12.342Z,10224